createdAt,value
2023-03-14T00:00:25.650Z,986.27
2023-03-14T00:01:25.649Z,986.31
2023-03-14T00:02:25.674Z,986.30
2023-03-14T00:03:25.620Z,986.36
2023-03-14T00:04:25.607Z,986.35
2023-03-14T00:05:25.601Z,986.35
2023-03-14T00:06:25.614Z,986.28
2023-03-14T00:07:25.590Z,986.25
2023-03-14T00:08:25.562Z,986.27
2023-03-14T00:09:25.542Z,986.25
2023-03-14T00:10:25.527Z,986.27
2023-03-14T00:11:25.516Z,986.34
2023-03-14T00:12:25.528Z,986.41
2023-03-14T00:13:25.518Z,986.47
2023-03-14T00:14:25.495Z,986.59
2023-03-14T00:15:25.492Z,986.64
2023-03-14T00:16:25.473Z,986.69
2023-03-14T00:17:25.483Z,986.76
2023-03-14T00:18:25.447Z,986.85
2023-03-14T00:19:25.428Z,986.86
2023-03-14T00:20:25.417Z,986.85
2023-03-14T00:21:25.420Z,986.82
2023-03-14T00:22:25.435Z,986.79
2023-03-14T00:23:25.404Z,986.81
2023-03-14T00:24:25.369Z,986.76
2023-03-14T00:25:25.354Z,986.74
2023-03-14T00:26:25.351Z,986.76
2023-03-14T00:27:25.371Z,986.77
2023-03-14T00:28:25.337Z,986.82
2023-03-14T00:29:25.320Z,986.81
2023-03-14T00:30:25.304Z,986.90
2023-03-14T00:31:25.356Z,986.85
2023-03-14T00:32:25.331Z,986.82
2023-03-14T00:33:25.278Z,986.78
2023-03-14T00:34:25.256Z,986.76
2023-03-14T00:35:25.244Z,986.73
2023-03-14T00:36:25.911Z,986.64
2023-03-14T00:37:25.244Z,986.62
2023-03-14T00:38:25.261Z,986.66
2023-03-14T00:39:25.205Z,986.85
2023-03-14T00:40:25.189Z,986.74
2023-03-14T00:41:25.200Z,986.81
2023-03-14T00:42:25.177Z,986.84
2023-03-14T00:43:25.155Z,986.80
2023-03-14T00:44:25.153Z,986.73
2023-03-14T00:45:25.142Z,986.73
2023-03-14T00:46:25.136Z,986.73
2023-03-14T00:47:25.132Z,986.69
2023-03-14T00:48:25.108Z,986.72
2023-03-14T00:49:25.078Z,986.63
2023-03-14T00:50:25.092Z,986.68
2023-03-14T00:51:25.069Z,986.75
2023-03-14T00:52:25.070Z,986.69
2023-03-14T00:53:25.052Z,986.69
2023-03-14T00:54:25.056Z,986.64
2023-03-14T00:55:25.015Z,986.69
2023-03-14T00:56:25.018Z,986.69
2023-03-14T00:57:25.002Z,986.72
2023-03-14T00:58:25.018Z,986.67
2023-03-14T00:59:24.973Z,986.66
2023-03-14T01:00:24.963Z,986.63
2023-03-14T01:01:25.010Z,986.63
2023-03-14T01:02:25.078Z,986.66
2023-03-14T01:03:24.922Z,986.73
2023-03-14T01:04:24.933Z,986.65
2023-03-14T01:05:24.912Z,986.76
2023-03-14T01:06:24.905Z,986.62
2023-03-14T01:07:24.909Z,986.63
2023-03-14T01:08:24.871Z,986.68
2023-03-14T01:09:24.869Z,986.67
2023-03-14T01:10:24.871Z,986.68
2023-03-14T01:11:24.834Z,986.76
2023-03-14T01:12:24.844Z,986.73
2023-03-14T01:13:24.824Z,986.72
2023-03-14T01:14:24.821Z,986.75
2023-03-14T01:15:24.790Z,986.84
2023-03-14T01:16:24.833Z,986.79
2023-03-14T01:17:24.775Z,986.90
2023-03-14T01:18:24.775Z,986.95
2023-03-14T01:19:24.779Z,986.88
2023-03-14T01:20:24.738Z,986.93
2023-03-14T01:21:24.735Z,986.95
2023-03-14T01:22:24.734Z,986.94
2023-03-14T01:23:24.719Z,986.91
2023-03-14T01:24:24.691Z,986.83
2023-03-14T01:25:24.689Z,987.04
2023-03-14T01:26:24.703Z,987.08
2023-03-14T01:27:24.666Z,987.02
2023-03-14T01:28:24.681Z,987.03
2023-03-14T01:29:24.650Z,987.01
2023-03-14T01:30:24.623Z,986.94
2023-03-14T01:31:24.690Z,986.91
2023-03-14T01:32:24.640Z,986.90
2023-03-14T01:33:24.614Z,986.91
2023-03-14T01:34:24.587Z,986.89
2023-03-14T01:35:24.563Z,986.88
2023-03-14T01:36:24.557Z,986.92
2023-03-14T01:37:24.547Z,986.88
2023-03-14T01:38:24.545Z,986.90
2023-03-14T01:39:24.519Z,986.87
2023-03-14T01:40:24.512Z,986.80
2023-03-14T01:41:24.515Z,986.82
2023-03-14T01:42:24.540Z,986.75
2023-03-14T01:43:24.494Z,986.79
2023-03-14T01:44:24.467Z,986.82
2023-03-14T01:45:24.490Z,986.84
2023-03-14T01:46:24.447Z,986.74
2023-03-14T01:47:24.427Z,986.79
2023-03-14T01:48:24.449Z,986.88
2023-03-14T01:49:24.405Z,986.86
2023-03-14T01:50:24.451Z,986.81
2023-03-14T01:51:24.384Z,986.84
2023-03-14T01:52:24.381Z,986.87
2023-03-14T01:53:24.374Z,986.80
2023-03-14T01:54:24.371Z,986.78
2023-03-14T01:55:24.353Z,986.81
2023-03-14T01:56:24.349Z,986.81
2023-03-14T01:57:24.332Z,986.75
2023-03-14T01:58:24.364Z,986.72
2023-03-14T01:59:24.306Z,986.64
2023-03-14T02:00:24.286Z,986.66
2023-03-14T02:01:24.290Z,986.57
2023-03-14T02:02:24.277Z,986.52
2023-03-14T02:03:24.363Z,986.53
2023-03-14T02:04:24.250Z,986.54
2023-03-14T02:05:24.225Z,986.60
2023-03-14T02:06:24.229Z,986.54
2023-03-14T02:07:24.213Z,986.58
2023-03-14T02:08:24.237Z,986.55
2023-03-14T02:09:24.202Z,986.62
2023-03-14T02:10:24.170Z,986.61
2023-03-14T02:11:24.163Z,986.66
2023-03-14T02:12:24.178Z,986.60
2023-03-14T02:13:24.159Z,986.67
2023-03-14T02:14:24.169Z,986.68
2023-03-14T02:15:24.136Z,986.71
2023-03-14T02:16:24.193Z,986.77
2023-03-14T02:17:24.097Z,986.64
2023-03-14T02:18:24.102Z,986.60
2023-03-14T02:19:24.073Z,986.56
2023-03-14T02:20:24.065Z,986.45
2023-03-14T02:21:24.053Z,986.42
2023-03-14T02:22:24.041Z,986.45
2023-03-14T02:23:24.025Z,986.49
2023-03-14T02:24:24.004Z,986.59
2023-03-14T02:25:23.998Z,986.58
2023-03-14T02:26:23.982Z,986.57
2023-03-14T02:27:23.979Z,986.51
2023-03-14T02:28:23.987Z,986.58
2023-03-14T02:29:23.943Z,986.53
2023-03-14T02:30:23.957Z,986.51
2023-03-14T02:31:23.998Z,986.52
2023-03-14T02:32:24.015Z,986.46
2023-03-14T02:33:23.909Z,986.47
2023-03-14T02:34:23.903Z,986.49
2023-03-14T02:35:23.873Z,986.47
2023-03-14T02:36:23.868Z,986.44
2023-03-14T02:37:23.853Z,986.38
2023-03-14T02:38:23.861Z,986.28
2023-03-14T02:39:23.840Z,986.25
2023-03-14T02:40:23.840Z,986.28
2023-03-14T02:41:23.842Z,986.29
2023-03-14T02:42:23.812Z,986.32
2023-03-14T02:43:23.818Z,986.26
2023-03-14T02:44:23.805Z,986.25
2023-03-14T02:45:23.774Z,986.26
2023-03-14T02:46:23.869Z,986.33
2023-03-14T02:47:23.750Z,986.30
2023-03-14T02:48:23.746Z,986.22
2023-03-14T02:49:23.741Z,986.19
2023-03-14T02:50:23.719Z,986.26
2023-03-14T02:51:23.691Z,986.23
2023-03-14T02:52:23.682Z,986.30
2023-03-14T02:53:23.670Z,986.26
2023-03-14T02:54:23.677Z,986.18
2023-03-14T02:55:23.673Z,986.12
2023-03-14T02:56:23.651Z,986.13
2023-03-14T02:57:23.621Z,986.07
2023-03-14T02:58:23.632Z,986.02
2023-03-14T02:59:23.641Z,986.01
2023-03-14T03:00:23.612Z,986.02
2023-03-14T03:01:23.632Z,986.05
2023-03-14T03:02:23.607Z,986.03
2023-03-14T03:03:23.711Z,986.04
2023-03-14T03:04:23.571Z,986.05
2023-03-14T03:05:23.532Z,986.03
2023-03-14T03:06:23.521Z,986.01
2023-03-14T03:07:23.509Z,986.01
2023-03-14T03:08:23.514Z,985.99
2023-03-14T03:09:23.504Z,986.00
2023-03-14T03:10:23.479Z,986.02
2023-03-14T03:11:23.464Z,985.96
2023-03-14T03:12:23.477Z,986.00
2023-03-14T03:13:23.439Z,985.99
2023-03-14T03:14:23.456Z,985.96
2023-03-14T03:15:23.433Z,985.97
2023-03-14T03:16:23.487Z,985.93
2023-03-14T03:17:23.407Z,985.93
2023-03-14T03:18:23.410Z,985.89
2023-03-14T03:19:23.384Z,985.91
2023-03-14T03:20:23.366Z,985.90
2023-03-14T03:21:23.350Z,985.92
2023-03-14T03:22:23.346Z,985.89
2023-03-14T03:23:23.326Z,985.89
2023-03-14T03:24:23.350Z,985.83
2023-03-14T03:25:23.308Z,985.83
2023-03-14T03:26:23.311Z,985.83
2023-03-14T03:27:23.300Z,985.82
2023-03-14T03:28:23.281Z,985.83
2023-03-14T03:29:23.291Z,985.84
2023-03-14T03:30:23.267Z,985.85
2023-03-14T03:31:23.243Z,985.86
2023-03-14T03:32:23.301Z,985.82
2023-03-14T03:33:23.218Z,985.81
2023-03-14T03:34:23.272Z,985.83
2023-03-14T03:35:23.196Z,985.82
2023-03-14T03:36:23.213Z,985.78
2023-03-14T03:37:23.173Z,985.80
2023-03-14T03:38:23.182Z,985.81
2023-03-14T03:39:23.165Z,985.77
2023-03-14T03:40:23.165Z,985.82
2023-03-14T03:41:23.147Z,985.80
2023-03-14T03:42:23.122Z,985.73
2023-03-14T03:43:23.118Z,985.80
2023-03-14T03:44:23.111Z,985.78
2023-03-14T03:45:23.097Z,985.73
2023-03-14T03:46:23.145Z,985.77
2023-03-14T03:47:23.058Z,985.78
2023-03-14T03:48:23.065Z,985.74
2023-03-14T03:49:23.054Z,985.74
2023-03-14T03:50:23.188Z,985.78
2023-03-14T03:51:23.033Z,985.76
2023-03-14T03:52:23.031Z,985.75
2023-03-14T03:53:32.843Z,985.76
2023-03-14T03:54:23.999Z,985.77
2023-03-14T03:55:22.968Z,985.74
2023-03-14T03:56:22.974Z,985.77
2023-03-14T03:57:22.947Z,985.74
2023-03-14T03:58:22.954Z,985.72
2023-03-14T03:59:22.953Z,985.78
2023-03-14T04:00:22.924Z,985.77
2023-03-14T04:01:22.912Z,985.79
2023-03-14T04:02:23.013Z,985.74
2023-03-14T04:03:22.892Z,985.76
2023-03-14T04:04:22.899Z,985.78
2023-03-14T04:05:22.867Z,985.74
2023-03-14T04:06:22.897Z,985.73
2023-03-14T04:07:22.847Z,985.73
2023-03-14T04:08:22.831Z,985.70
2023-03-14T04:09:22.836Z,985.68
2023-03-14T04:10:22.817Z,985.67
2023-03-14T04:11:22.786Z,985.69
2023-03-14T04:12:22.781Z,985.71
2023-03-14T04:13:22.776Z,985.69
2023-03-14T04:14:22.780Z,985.72
2023-03-14T04:15:22.753Z,985.72
2023-03-14T04:16:22.836Z,985.74
2023-03-14T04:17:22.934Z,985.71
2023-03-14T04:18:22.724Z,985.69
2023-03-14T04:19:23.018Z,985.75
2023-03-14T04:20:22.704Z,985.78
2023-03-14T04:21:22.675Z,985.65
2023-03-14T04:22:22.689Z,985.65
2023-03-14T04:23:22.655Z,985.66
2023-03-14T04:24:22.661Z,985.67
2023-03-14T04:25:22.650Z,985.66
2023-03-14T04:26:22.633Z,985.64
2023-03-14T04:27:22.629Z,985.64
2023-03-14T04:28:22.614Z,985.66
2023-03-14T04:29:22.604Z,985.64
2023-03-14T04:30:22.594Z,985.57
2023-03-14T04:31:22.674Z,985.59
2023-03-14T04:32:22.634Z,985.54
2023-03-14T04:33:22.550Z,985.55
2023-03-14T04:34:22.554Z,985.52
2023-03-14T04:35:22.526Z,985.65
2023-03-14T04:36:22.516Z,985.53
2023-03-14T04:37:22.502Z,985.61
2023-03-14T04:38:22.507Z,985.61
2023-03-14T04:39:22.495Z,985.58
2023-03-14T04:40:22.462Z,985.58
2023-03-14T04:41:22.447Z,985.62
2023-03-14T04:42:22.484Z,985.61
2023-03-14T04:43:22.444Z,985.59
2023-03-14T04:44:22.435Z,985.61
2023-03-14T04:45:22.400Z,985.64
2023-03-14T04:46:22.418Z,985.59
2023-03-14T04:47:22.407Z,985.67
2023-03-14T04:48:22.363Z,985.61
2023-03-14T04:49:22.399Z,985.58
2023-03-14T04:50:22.357Z,985.49
2023-03-14T04:51:22.338Z,985.51
2023-03-14T04:52:22.319Z,985.47
2023-03-14T04:53:22.313Z,985.35
2023-03-14T04:54:22.429Z,985.40
2023-03-14T04:55:24.385Z,985.35
2023-03-14T04:56:22.268Z,985.33
2023-03-14T04:57:22.265Z,985.29
2023-03-14T04:58:22.248Z,985.22
2023-03-14T04:59:22.245Z,985.24
2023-03-14T05:00:22.275Z,985.16
2023-03-14T05:01:22.316Z,985.28
2023-03-14T05:02:22.217Z,985.16
2023-03-14T05:03:22.274Z,985.21
2023-03-14T05:04:22.178Z,985.18
2023-03-14T05:05:22.199Z,985.12
2023-03-14T05:06:22.154Z,985.08
2023-03-14T05:07:22.147Z,985.07
2023-03-14T05:08:22.146Z,985.09
2023-03-14T05:09:22.139Z,985.14
2023-03-14T05:10:22.272Z,985.14
2023-03-14T05:11:22.100Z,985.14
2023-03-14T05:12:22.083Z,985.08
2023-03-14T05:13:22.094Z,985.08
2023-03-14T05:14:22.063Z,985.08
2023-03-14T05:15:22.103Z,985.06
2023-03-14T05:16:22.152Z,985.08
2023-03-14T05:17:22.042Z,985.09
2023-03-14T05:18:22.030Z,984.99
2023-03-14T05:19:22.026Z,985.01
2023-03-14T05:20:21.998Z,984.99
2023-03-14T05:21:22.013Z,984.99
2023-03-14T05:22:21.971Z,984.90
2023-03-14T05:23:21.961Z,984.93
2023-03-14T05:24:21.944Z,984.85
2023-03-14T05:25:21.956Z,984.97
2023-03-14T05:26:21.970Z,984.91
2023-03-14T05:27:21.930Z,984.92
2023-03-14T05:28:21.911Z,984.89
2023-03-14T05:29:21.910Z,984.92
2023-03-14T05:30:21.876Z,984.93
2023-03-14T05:31:21.907Z,984.89
2023-03-14T05:32:21.921Z,984.85
2023-03-14T05:33:21.863Z,984.85
2023-03-14T05:34:21.829Z,984.83
2023-03-14T05:35:21.838Z,984.89
2023-03-14T05:36:21.840Z,984.84
2023-03-14T05:37:21.809Z,984.87
2023-03-14T05:38:21.801Z,984.90
2023-03-14T05:39:21.799Z,984.87
2023-03-14T05:40:21.770Z,984.89
2023-03-14T05:41:21.775Z,984.86
2023-03-14T05:42:21.819Z,984.89
2023-03-14T05:43:21.735Z,984.84
2023-03-14T05:44:21.735Z,984.88
2023-03-14T05:45:21.715Z,984.93
2023-03-14T05:46:21.787Z,984.89
2023-03-14T05:47:21.707Z,984.88
2023-03-14T05:48:21.705Z,984.88
2023-03-14T05:49:21.682Z,984.87
2023-03-14T05:50:21.653Z,984.92
2023-03-14T05:51:21.646Z,984.90
2023-03-14T05:52:21.632Z,984.88
2023-03-14T05:53:21.657Z,984.89
2023-03-14T05:54:21.611Z,985.02
2023-03-14T05:55:21.599Z,984.91
2023-03-14T05:56:21.599Z,984.91
2023-03-14T05:57:21.590Z,984.89
2023-03-14T05:58:21.653Z,984.92
2023-03-14T05:59:21.582Z,984.87
2023-03-14T06:00:21.555Z,984.97
2023-03-14T06:01:21.538Z,984.91
2023-03-14T06:02:21.587Z,985.00
2023-03-14T06:03:21.541Z,984.89
2023-03-14T06:04:21.526Z,984.92
2023-03-14T06:05:21.485Z,984.92
2023-03-14T06:06:21.467Z,984.89
2023-03-14T06:07:21.479Z,984.89
2023-03-14T06:08:21.462Z,984.79
2023-03-14T06:09:21.436Z,984.74
2023-03-14T06:10:21.442Z,984.87
2023-03-14T06:11:21.434Z,984.75
2023-03-14T06:12:21.412Z,984.77
2023-03-14T06:13:21.415Z,984.71
2023-03-14T06:14:21.445Z,984.70
2023-03-14T06:15:21.379Z,984.71
2023-03-14T06:16:21.393Z,984.73
2023-03-14T06:17:21.346Z,984.67
2023-03-14T06:18:21.328Z,984.68
2023-03-14T06:19:21.336Z,984.66
2023-03-14T06:20:21.340Z,984.71
2023-03-14T06:21:21.298Z,984.69
2023-03-14T06:22:21.290Z,984.66
2023-03-14T06:23:21.276Z,984.61
2023-03-14T06:24:21.381Z,984.60
2023-03-14T06:25:21.278Z,984.60
2023-03-14T06:26:21.261Z,984.61
2023-03-14T06:27:21.235Z,984.61
2023-03-14T06:28:21.212Z,984.58
2023-03-14T06:29:21.208Z,984.59
2023-03-14T06:30:21.237Z,984.58
2023-03-14T06:31:21.309Z,984.62
2023-03-14T06:32:21.202Z,984.65
2023-03-14T06:33:21.165Z,984.62
2023-03-14T06:34:21.149Z,984.62
2023-03-14T06:35:21.147Z,984.63
2023-03-14T06:36:21.141Z,984.61
2023-03-14T06:37:21.275Z,984.67
2023-03-14T06:38:21.119Z,984.68
2023-03-14T06:39:21.102Z,984.66
2023-03-14T06:40:21.100Z,984.63
2023-03-14T06:41:21.093Z,984.67
2023-03-14T06:42:21.060Z,984.74
2023-03-14T06:43:21.066Z,984.69
2023-03-14T06:44:21.048Z,984.68
2023-03-14T06:45:21.038Z,984.73
2023-03-14T06:46:21.140Z,984.71
2023-03-14T06:47:21.012Z,984.69
2023-03-14T06:48:20.992Z,984.70
2023-03-14T06:49:20.983Z,984.71
2023-03-14T06:50:20.983Z,984.69
2023-03-14T06:51:20.978Z,984.76
2023-03-14T06:52:20.948Z,984.70
2023-03-14T06:53:20.948Z,984.72
2023-03-14T06:54:20.936Z,984.72
2023-03-14T06:55:22.571Z,984.66
2023-03-14T06:56:20.938Z,984.74
2023-03-14T06:57:20.905Z,984.67
2023-03-14T06:58:20.895Z,984.74
2023-03-14T06:59:20.893Z,984.69
2023-03-14T07:00:20.859Z,984.74
2023-03-14T07:01:20.962Z,984.77
2023-03-14T07:02:26.971Z,984.77
2023-03-14T07:03:21.844Z,984.75
2023-03-14T07:04:20.947Z,984.70
2023-03-14T07:05:20.803Z,984.76
2023-03-14T07:06:20.814Z,984.82
2023-03-14T07:07:20.791Z,984.67
2023-03-14T07:08:20.774Z,984.73
2023-03-14T07:09:20.763Z,984.74
2023-03-14T07:10:20.752Z,984.82
2023-03-14T07:11:20.736Z,984.77
2023-03-14T07:12:20.717Z,984.77
2023-03-14T07:13:20.723Z,984.84
2023-03-14T07:14:21.948Z,984.77
2023-03-14T07:15:20.687Z,984.82
2023-03-14T07:16:20.772Z,984.82
2023-03-14T07:17:20.663Z,984.80
2023-03-14T07:18:20.720Z,984.79
2023-03-14T07:19:20.659Z,984.73
2023-03-14T07:20:20.651Z,984.91
2023-03-14T07:21:20.635Z,984.87
2023-03-14T07:22:20.616Z,984.81
2023-03-14T07:23:20.607Z,984.85
2023-03-14T07:24:20.579Z,984.92
2023-03-14T07:25:20.579Z,984.91
2023-03-14T07:26:20.556Z,984.87
2023-03-14T07:27:20.549Z,984.92
2023-03-14T07:28:20.558Z,984.91
2023-03-14T07:29:20.551Z,984.95
2023-03-14T07:30:20.541Z,985.00
2023-03-14T07:31:20.559Z,984.89
2023-03-14T07:32:20.504Z,984.97
2023-03-14T07:33:20.517Z,984.96
2023-03-14T07:34:20.611Z,984.98
2023-03-14T07:35:20.483Z,984.98
2023-03-14T07:36:20.481Z,985.01
2023-03-14T07:37:20.456Z,985.06
2023-03-14T07:38:22.706Z,985.09
2023-03-14T07:39:20.429Z,985.12
2023-03-14T07:40:20.421Z,985.12
2023-03-14T07:41:20.407Z,985.12
2023-03-14T07:42:20.384Z,985.11
2023-03-14T07:43:20.374Z,985.07
2023-03-14T07:44:20.598Z,985.08
2023-03-14T07:45:20.362Z,985.11
2023-03-14T07:46:20.381Z,985.14
2023-03-14T07:47:20.327Z,985.15
2023-03-14T07:48:20.323Z,985.13
2023-03-14T07:49:20.323Z,985.12
2023-03-14T07:50:20.383Z,985.14
2023-03-14T07:51:20.299Z,985.17
2023-03-14T07:52:20.280Z,985.14
2023-03-14T07:53:20.272Z,985.10
2023-03-14T07:54:21.242Z,985.14
2023-03-14T07:55:20.248Z,985.09
2023-03-14T07:56:20.241Z,985.16
2023-03-14T07:57:20.220Z,985.15
2023-03-14T07:58:20.208Z,985.13
2023-03-14T07:59:20.232Z,985.14
2023-03-14T08:00:20.192Z,985.17
2023-03-14T08:01:20.183Z,985.24
2023-03-14T08:02:20.171Z,985.22
2023-03-14T08:03:20.148Z,985.17
2023-03-14T08:04:20.145Z,985.31
2023-03-14T08:05:20.145Z,985.17
2023-03-14T08:06:21.110Z,985.17
2023-03-14T08:07:20.120Z,985.18
2023-03-14T08:08:20.098Z,985.17
2023-03-14T08:09:20.077Z,985.26
2023-03-14T08:10:20.083Z,985.25
2023-03-14T08:11:20.055Z,985.25
2023-03-14T08:12:20.067Z,985.26
2023-03-14T08:13:20.040Z,985.24
2023-03-14T08:14:20.052Z,985.10
2023-03-14T08:15:20.011Z,985.24
2023-03-14T08:16:20.093Z,985.20
2023-03-14T08:17:19.986Z,985.27
2023-03-14T08:18:20.015Z,985.30
2023-03-14T08:19:19.965Z,985.25
2023-03-14T08:20:19.964Z,985.27
2023-03-14T08:21:19.958Z,985.25
2023-03-14T08:22:20.384Z,985.27
2023-03-14T08:23:19.933Z,985.29
2023-03-14T08:24:19.925Z,985.30
2023-03-14T08:25:19.929Z,985.32
2023-03-14T08:26:19.903Z,985.35
2023-03-14T08:27:19.892Z,985.35
2023-03-14T08:28:19.858Z,985.29
2023-03-14T08:29:19.857Z,985.30
2023-03-14T08:30:19.922Z,985.26
2023-03-14T08:31:20.032Z,985.35
2023-03-14T08:32:19.864Z,985.31
2023-03-14T08:33:19.810Z,985.27
2023-03-14T08:34:19.802Z,985.33
2023-03-14T08:35:19.798Z,985.32
2023-03-14T08:36:23.144Z,985.34
2023-03-14T08:37:26.768Z,985.30
2023-03-14T08:38:20.779Z,985.32
2023-03-14T08:39:19.800Z,985.28
2023-03-14T08:40:19.726Z,985.30
2023-03-14T08:41:19.738Z,985.37
2023-03-14T08:42:19.698Z,985.36
2023-03-14T08:43:19.705Z,985.39
2023-03-14T08:44:20.882Z,985.42
2023-03-14T08:45:19.675Z,985.43
2023-03-14T08:46:19.747Z,985.43
2023-03-14T08:47:19.693Z,985.45
2023-03-14T08:48:19.637Z,985.43
2023-03-14T08:49:19.643Z,985.45
2023-03-14T08:50:19.609Z,985.51
2023-03-14T08:51:19.611Z,985.48
2023-03-14T08:52:19.635Z,985.47
2023-03-14T08:53:19.629Z,985.49
2023-03-14T08:54:19.593Z,985.49
2023-03-14T08:55:19.567Z,985.46
2023-03-14T08:56:19.553Z,985.50
2023-03-14T08:57:19.566Z,985.45
2023-03-14T08:58:19.523Z,985.46
2023-03-14T08:59:19.507Z,985.52
2023-03-14T09:00:19.528Z,985.58
2023-03-14T09:01:19.640Z,985.62
2023-03-14T09:02:19.485Z,985.51
2023-03-14T09:03:19.488Z,985.61
2023-03-14T09:04:19.505Z,985.64
2023-03-14T09:05:19.488Z,985.53
2023-03-14T09:06:19.436Z,985.61
2023-03-14T09:07:19.437Z,985.68
2023-03-14T09:08:19.419Z,985.73
2023-03-14T09:09:19.411Z,985.70
2023-03-14T09:10:19.420Z,985.73
2023-03-14T09:11:19.375Z,985.74
2023-03-14T09:12:19.421Z,985.82
2023-03-14T09:13:19.343Z,985.90
2023-03-14T09:14:20.908Z,985.90
2023-03-14T09:15:19.332Z,985.93
2023-03-14T09:16:19.423Z,985.98
2023-03-14T09:17:19.323Z,986.02
2023-03-14T09:18:19.292Z,986.02
2023-03-14T09:19:19.276Z,986.00
2023-03-14T09:20:19.272Z,985.96
2023-03-14T09:21:19.255Z,986.04
2023-03-14T09:22:19.260Z,986.06
2023-03-14T09:23:19.249Z,986.05
2023-03-14T09:24:19.239Z,986.05
2023-03-14T09:25:19.236Z,986.08
2023-03-14T09:26:19.250Z,986.14
2023-03-14T09:27:19.226Z,986.13
2023-03-14T09:28:19.206Z,986.14
2023-03-14T09:29:19.177Z,986.14
2023-03-14T09:30:19.183Z,986.21
2023-03-14T09:31:19.198Z,986.21
2023-03-14T09:32:19.309Z,986.17
2023-03-14T09:33:19.120Z,986.19
2023-03-14T09:34:19.125Z,986.17
2023-03-14T09:35:19.186Z,986.23
2023-03-14T09:36:19.090Z,986.28
2023-03-14T09:37:19.124Z,986.29
2023-03-14T09:38:19.103Z,986.38
2023-03-14T09:39:19.068Z,986.41
2023-03-14T09:40:19.056Z,986.38
2023-03-14T09:41:19.035Z,986.42
2023-03-14T09:42:19.144Z,986.68
2023-03-14T09:43:19.006Z,986.72
2023-03-14T09:44:18.998Z,987.06
2023-03-14T09:45:18.981Z,987.08
2023-03-14T09:46:18.993Z,987.00
2023-03-14T09:47:19.159Z,987.02
2023-03-14T09:48:18.950Z,987.09
2023-03-14T09:49:18.935Z,987.00
2023-03-14T09:50:18.926Z,987.24
2023-03-14T09:51:18.909Z,987.26
2023-03-14T09:52:19.104Z,987.36
2023-03-14T09:53:18.886Z,987.36
2023-03-14T09:54:18.890Z,987.45
2023-03-14T09:55:18.870Z,987.47
2023-03-14T09:56:18.860Z,987.58
2023-03-14T09:57:18.874Z,987.63
2023-03-14T09:58:18.862Z,987.58
2023-03-14T09:59:18.817Z,987.72
2023-03-14T10:00:18.815Z,987.72
2023-03-14T10:01:18.865Z,987.89
2023-03-14T10:02:18.798Z,987.98
2023-03-14T10:03:18.768Z,988.06
2023-03-14T10:04:18.882Z,988.06
2023-03-14T10:05:18.760Z,988.03
2023-03-14T10:06:18.757Z,988.13
2023-03-14T10:07:18.748Z,988.20
2023-03-14T10:08:18.735Z,988.20
2023-03-14T10:09:18.715Z,988.25
2023-03-14T10:10:18.696Z,988.20
2023-03-14T10:11:18.674Z,988.26
2023-03-14T10:12:18.734Z,988.36
2023-03-14T10:13:18.669Z,988.41
2023-03-14T10:14:18.715Z,988.43
2023-03-14T10:15:18.641Z,988.58
2023-03-14T10:16:18.655Z,988.52
2023-03-14T10:17:18.632Z,988.61
2023-03-14T10:18:18.638Z,988.51
2023-03-14T10:19:18.600Z,988.66
2023-03-14T10:20:18.620Z,988.66
2023-03-14T10:21:18.580Z,988.73
2023-03-14T10:22:18.561Z,988.73
2023-03-14T10:23:18.559Z,988.75
2023-03-14T10:24:18.552Z,988.84
2023-03-14T10:25:18.513Z,988.88
2023-03-14T10:26:18.524Z,988.91
2023-03-14T10:27:18.512Z,988.80
2023-03-14T10:28:18.498Z,988.88
2023-03-14T10:29:18.493Z,988.88
2023-03-14T10:30:18.594Z,988.86
2023-03-14T10:31:18.489Z,989.11
2023-03-14T10:32:18.458Z,989.13
2023-03-14T10:33:18.427Z,989.15
2023-03-14T10:34:18.447Z,989.15
2023-03-14T10:35:18.427Z,989.19
2023-03-14T10:36:18.448Z,989.25
2023-03-14T10:37:18.382Z,989.17
2023-03-14T10:38:18.396Z,989.36
2023-03-14T10:39:18.380Z,989.46
2023-03-14T10:40:18.458Z,989.43
2023-03-14T10:41:18.352Z,989.47
2023-03-14T10:42:18.352Z,989.51
2023-03-14T10:43:18.329Z,989.49
2023-03-14T10:44:18.340Z,989.61
2023-03-14T10:45:18.308Z,989.67
2023-03-14T10:46:18.517Z,989.68
2023-03-14T10:47:18.665Z,989.66
2023-03-14T10:48:18.266Z,989.72
2023-03-14T10:49:18.248Z,989.76
2023-03-14T10:50:18.263Z,989.80
2023-03-14T10:51:18.241Z,989.77
2023-03-14T10:52:18.230Z,989.77
2023-03-14T10:53:18.206Z,989.85
2023-03-14T10:54:18.197Z,989.93
2023-03-14T10:55:18.214Z,989.94
2023-03-14T10:56:18.182Z,990.00
2023-03-14T10:57:18.171Z,989.96
2023-03-14T10:58:18.152Z,990.02
2023-03-14T10:59:18.150Z,990.06
2023-03-14T11:00:18.169Z,990.03
2023-03-14T11:01:18.137Z,990.11
2023-03-14T11:02:18.142Z,990.12
2023-03-14T11:03:18.106Z,990.13
2023-03-14T11:04:18.130Z,990.12
2023-03-14T11:05:18.091Z,990.18
2023-03-14T11:06:18.078Z,990.22
2023-03-14T11:07:18.042Z,990.27
2023-03-14T11:08:18.040Z,990.22
2023-03-14T11:09:18.034Z,990.24
2023-03-14T11:10:18.029Z,990.32
2023-03-14T11:11:18.013Z,990.22
2023-03-14T11:12:17.993Z,990.32
2023-03-14T11:13:17.987Z,990.33
2023-03-14T11:14:17.990Z,990.30
2023-03-14T11:15:17.969Z,990.32
2023-03-14T11:16:17.993Z,990.43
2023-03-14T11:17:17.942Z,990.43
2023-03-14T11:18:17.963Z,990.46
2023-03-14T11:19:17.942Z,990.48
2023-03-14T11:20:17.947Z,990.40
2023-03-14T11:21:17.896Z,990.54
2023-03-14T11:22:17.916Z,990.53
2023-03-14T11:23:17.893Z,990.49
2023-03-14T11:24:17.866Z,990.55
2023-03-14T11:25:17.847Z,990.55
2023-03-14T11:26:17.896Z,990.54
2023-03-14T11:27:17.837Z,990.51
2023-03-14T11:28:17.810Z,990.56
2023-03-14T11:29:17.825Z,990.58
2023-03-14T11:30:18.656Z,990.61
2023-03-14T11:31:17.862Z,990.59
2023-03-14T11:32:17.766Z,990.57
2023-03-14T11:33:17.759Z,990.69
2023-03-14T11:34:17.805Z,990.69
2023-03-14T11:35:17.727Z,990.77
2023-03-14T11:36:17.758Z,990.62
2023-03-14T11:37:17.737Z,990.79
2023-03-14T11:38:17.709Z,990.72
2023-03-14T11:39:17.710Z,990.72
2023-03-14T11:40:17.680Z,990.72
2023-03-14T11:41:17.699Z,990.80
2023-03-14T11:42:17.694Z,990.77
2023-03-14T11:43:17.668Z,990.76
2023-03-14T11:44:17.629Z,990.85
2023-03-14T11:45:17.647Z,991.22
2023-03-14T11:46:17.691Z,991.19
2023-03-14T11:47:17.595Z,991.30
2023-03-14T11:48:17.601Z,991.34
2023-03-14T11:49:17.568Z,991.46
2023-03-14T11:50:17.597Z,991.47
2023-03-14T11:51:17.581Z,991.48
2023-03-14T11:52:17.537Z,991.54
2023-03-14T11:53:17.534Z,991.53
2023-03-14T11:54:17.532Z,991.58
2023-03-14T11:55:17.787Z,991.60
2023-03-14T11:56:17.602Z,991.66
2023-03-14T11:57:17.505Z,991.65
2023-03-14T11:58:17.725Z,991.63
2023-03-14T11:59:17.454Z,991.72
2023-03-14T12:00:17.460Z,991.77
2023-03-14T12:01:17.584Z,991.79
2023-03-14T12:02:17.462Z,991.84
2023-03-14T12:03:17.403Z,991.87
2023-03-14T12:04:17.641Z,991.94
2023-03-14T12:05:17.405Z,991.94
2023-03-14T12:06:17.519Z,991.95
2023-03-14T12:07:17.436Z,991.98
2023-03-14T12:08:17.353Z,991.98
2023-03-14T12:09:17.349Z,992.00
2023-03-14T12:10:17.344Z,992.03
2023-03-14T12:11:17.322Z,992.10
2023-03-14T12:12:17.317Z,992.17
2023-03-14T12:13:17.288Z,992.12
2023-03-14T12:14:17.288Z,992.18
2023-03-14T12:15:17.267Z,992.23
2023-03-14T12:16:17.420Z,992.17
2023-03-14T12:17:17.257Z,992.28
2023-03-14T12:18:17.234Z,992.30
2023-03-14T12:19:17.240Z,992.36
2023-03-14T12:20:17.284Z,992.30
2023-03-14T12:21:17.220Z,992.46
2023-03-14T12:22:17.233Z,992.48
2023-03-14T12:23:17.221Z,992.53
2023-03-14T12:24:17.360Z,992.52
2023-03-14T12:25:17.153Z,992.56
2023-03-14T12:26:17.154Z,992.63
2023-03-14T12:27:17.160Z,992.82
2023-03-14T12:28:17.119Z,992.79